createdAt,value
2016-10-02T00:00:35.700Z,68.78
2016-10-02T00:01:35.715Z,69.13
2016-10-02T00:02:35.734Z,68.46
2016-10-02T00:03:35.760Z,68.74
2016-10-02T00:04:35.789Z,69.03
2016-10-02T00:05:35.807Z,68.46
2016-10-02T00:06:35.819Z,69.03
2016-10-02T00:07:35.842Z,69.13
2016-10-02T00:08:35.868Z,68.84
2016-10-02T00:09:35.886Z,68.27
2016-10-02T00:10:35.912Z,68.65
2016-10-02T00:11:35.931Z,68.55
2016-10-02T00:12:35.958Z,68.74
2016-10-02T00:13:35.964Z,68.46
2016-10-02T00:14:35.991Z,68.46
2016-10-02T00:15:36.017Z,68.27
2016-10-02T00:16:36.051Z,68.17
2016-10-02T00:17:36.054Z,68.27
2016-10-02T00:18:36.075Z,68.17
2016-10-02T00:19:36.105Z,68.17
2016-10-02T00:20:42.403Z,68.46
2016-10-02T00:21:36.148Z,68.46
2016-10-02T00:22:36.175Z,68.84
2016-10-02T00:23:36.196Z,68.74
2016-10-02T00:24:36.218Z,68.74
2016-10-02T00:25:36.237Z,68.84
2016-10-02T00:26:36.259Z,67.98
2016-10-02T00:27:36.277Z,68.84
2016-10-02T00:28:36.302Z,68.65
2016-10-02T00:29:36.319Z,68.65
2016-10-02T00:30:36.344Z,68.84
2016-10-02T00:31:36.361Z,67.88
2016-10-02T00:32:36.386Z,67.88
2016-10-02T00:33:36.406Z,68.94
2016-10-02T00:34:36.433Z,67.88
2016-10-02T00:35:36.446Z,67.88
2016-10-02T00:36:36.467Z,68.94
2016-10-02T00:37:36.487Z,68.84
2016-10-02T00:38:36.511Z,67.98
2016-10-02T00:39:36.541Z,68.36
2016-10-02T00:40:36.556Z,68.55
2016-10-02T00:41:36.578Z,68.17
2016-10-02T00:42:36.599Z,68.55
2016-10-02T00:43:36.619Z,68.46
2016-10-02T00:44:36.640Z,68.07
2016-10-02T00:45:36.661Z,67.98
2016-10-02T00:46:36.680Z,68.55
2016-10-02T00:47:36.713Z,68.65
2016-10-02T00:48:36.725Z,67.98
2016-10-02T00:49:36.738Z,68.27
2016-10-02T00:50:36.775Z,67.98
2016-10-02T00:51:36.776Z,68.07
2016-10-02T00:52:36.805Z,68.36
2016-10-02T00:53:36.818Z,68.17
2016-10-02T00:54:36.849Z,68.46
2016-10-02T00:55:36.869Z,68.07
2016-10-02T00:56:36.886Z,67.98
2016-10-02T00:57:36.912Z,67.79
2016-10-02T00:58:37.244Z,68.27
2016-10-02T00:59:36.952Z,67.88
2016-10-02T01:00:36.966Z,68.62
2016-10-02T01:01:36.992Z,67.88
2016-10-02T01:02:37.012Z,67.88
2016-10-02T01:03:37.027Z,68.55
2016-10-02T01:04:37.059Z,68.23
2016-10-02T01:05:37.086Z,67.88
2016-10-02T01:06:37.101Z,68.27
2016-10-02T01:07:37.112Z,68.52
2016-10-02T01:08:37.145Z,68.52
2016-10-02T01:09:37.162Z,68.52
2016-10-02T01:10:37.210Z,68.55
2016-10-02T01:11:37.200Z,68.13
2016-10-02T01:12:37.219Z,68.13
2016-10-02T01:13:37.240Z,68.52
2016-10-02T01:14:37.262Z,68.52
2016-10-02T01:15:37.283Z,68.52
2016-10-02T01:16:37.302Z,68.23
2016-10-02T01:17:37.320Z,68.52
2016-10-02T01:18:37.343Z,68.52
2016-10-02T01:19:37.362Z,68.23
2016-10-02T01:20:37.384Z,67.94
2016-10-02T01:21:37.415Z,68.04
2016-10-02T01:22:37.431Z,68.52
2016-10-02T01:23:37.448Z,68.04
2016-10-02T01:24:37.473Z,68.33
2016-10-02T01:25:37.610Z,67.76
2016-10-02T01:26:37.618Z,68.62
2016-10-02T01:27:37.628Z,68.23
2016-10-02T01:28:37.661Z,68.42
2016-10-02T01:29:37.678Z,67.94
2016-10-02T01:30:37.669Z,68.9
2016-10-02T01:31:37.680Z,68.04
2016-10-02T01:32:37.688Z,68.62
2016-10-02T01:33:37.696Z,67.76
2016-10-02T01:34:37.705Z,68.71
2016-10-02T01:35:37.704Z,68.13
2016-10-02T01:36:37.720Z,67.85
2016-10-02T01:37:37.855Z,68.13
2016-10-02T01:38:37.797Z,68.33
2016-10-02T01:39:37.792Z,68.33
2016-10-02T01:40:37.912Z,67.56
2016-10-02T01:41:37.923Z,67.66
2016-10-02T01:42:37.929Z,67.94
2016-10-02T01:43:37.939Z,67.76
2016-10-02T01:44:37.967Z,68.42
2016-10-02T01:45:37.975Z,67.76
2016-10-02T01:46:37.983Z,68.71
2016-10-02T01:47:37.992Z,67.66
2016-10-02T01:48:37.998Z,68.04
2016-10-02T01:49:37.998Z,68.62
2016-10-02T01:50:38.007Z,68.71
2016-10-02T01:51:38.028Z,67.85
2016-10-02T01:52:38.048Z,68.9
2016-10-02T01:53:38.072Z,68.04
2016-10-02T01:54:38.091Z,68.9
2016-10-02T01:55:38.109Z,67.85
2016-10-02T01:56:38.137Z,67.85
2016-10-02T01:57:38.151Z,67.76
2016-10-02T01:58:38.487Z,68.9
2016-10-02T01:59:38.197Z,68.13
2016-10-02T02:00:38.222Z,67.94
2016-10-02T02:01:38.239Z,67.94
2016-10-02T02:02:38.253Z,68.04
2016-10-02T02:03:38.333Z,68.13
2016-10-02T02:04:38.292Z,68.13
2016-10-02T02:05:38.324Z,68.62
2016-10-02T02:06:38.335Z,68.52
2016-10-02T02:07:38.361Z,68.42
2016-10-02T02:08:38.376Z,68.13
2016-10-02T02:09:38.405Z,67.85
2016-10-02T02:10:38.423Z,68.04
2016-10-02T02:11:38.440Z,68.62
2016-10-02T02:12:38.470Z,68.13
2016-10-02T02:13:38.581Z,68.13
2016-10-02T02:14:38.523Z,68.13
2016-10-02T02:15:38.522Z,67.94
2016-10-02T02:16:38.566Z,68.23
2016-10-02T02:17:38.568Z,67.94
2016-10-02T02:18:38.587Z,68.33
2016-10-02T02:19:38.609Z,67.85
2016-10-02T02:20:38.628Z,68.71
2016-10-02T02:21:38.648Z,67.85
2016-10-02T02:22:38.665Z,68.62
2016-10-02T02:23:38.689Z,68.8
2016-10-02T02:24:38.707Z,68.13
2016-10-02T02:25:38.734Z,68.62
2016-10-02T02:26:38.757Z,68.33
2016-10-02T02:27:38.766Z,68.42
2016-10-02T02:28:38.812Z,68.8
2016-10-02T02:29:38.814Z,68.42
2016-10-02T02:30:38.848Z,67.76
2016-10-02T02:31:38.852Z,67.85
2016-10-02T02:32:38.875Z,68.33
2016-10-02T02:33:38.898Z,67.82
2016-10-02T02:34:38.924Z,67.85
2016-10-02T02:35:38.940Z,67.82
2016-10-02T02:36:38.955Z,68.87
2016-10-02T02:37:38.975Z,67.82
2016-10-02T02:38:38.993Z,68.1
2016-10-02T02:39:39.022Z,68.23
2016-10-02T02:40:39.053Z,68.49
2016-10-02T02:41:39.057Z,68.49
2016-10-02T02:42:39.081Z,67.82
2016-10-02T02:43:39.103Z,67.82
2016-10-02T02:44:39.157Z,68.01
2016-10-02T02:45:39.136Z,68.01
2016-10-02T02:46:39.167Z,68.39
2016-10-02T02:47:39.183Z,68.1
2016-10-02T02:48:39.207Z,68.01
2016-10-02T02:49:39.225Z,67.91
2016-10-02T02:50:39.247Z,67.91
2016-10-02T02:51:39.263Z,67.82
2016-10-02T02:52:39.283Z,68.58
2016-10-02T02:53:39.308Z,67.91
2016-10-02T02:54:39.321Z,68.58
2016-10-02T02:55:39.344Z,68.77
2016-10-02T02:56:39.378Z,68.29
2016-10-02T02:57:39.391Z,68.58
2016-10-02T02:58:39.402Z,67.72
2016-10-02T02:59:39.428Z,67.91
2016-10-02T03:00:39.444Z,68.01
2016-10-02T03:01:39.642Z,67.82
2016-10-02T03:02:39.608Z,67.72
2016-10-02T03:03:39.620Z,68.87
2016-10-02T03:04:39.768Z,68.01
2016-10-02T03:05:39.634Z,67.91
2016-10-02T03:06:39.650Z,67.82
2016-10-02T03:07:39.769Z,67.82
2016-10-02T03:08:39.916Z,67.82
2016-10-02T03:09:39.778Z,67.82
2016-10-02T03:10:39.786Z,68.87
2016-10-02T03:11:39.796Z,68.87
2016-10-02T03:12:39.808Z,67.91
2016-10-02T03:13:39.948Z,68.49
2016-10-02T03:14:39.947Z,68.1
2016-10-02T03:15:39.958Z,68.39
2016-10-02T03:16:39.961Z,67.82
2016-10-02T03:17:39.977Z,68.2
2016-10-02T03:18:40.058Z,68.2
2016-10-02T03:19:39.986Z,68.1
2016-10-02T03:20:39.931Z,68.01
2016-10-02T03:21:39.944Z,68.87
2016-10-02T03:22:39.983Z,68.39
2016-10-02T03:23:40.016Z,68.39
2016-10-02T03:24:39.992Z,68.01
2016-10-02T03:25:40.000Z,68.58
2016-10-02T03:26:40.005Z,68.39
2016-10-02T03:27:40.015Z,68.49
2016-10-02T03:28:40.439Z,68.58
2016-10-02T03:29:40.036Z,68.77
2016-10-02T03:30:40.085Z,68.58
2016-10-02T03:31:40.085Z,68.58
2016-10-02T03:32:40.103Z,68.39
2016-10-02T03:33:40.120Z,68.29
2016-10-02T03:34:40.138Z,68.2
2016-10-02T03:35:40.157Z,68.77
2016-10-02T03:36:40.181Z,68.58
2016-10-02T03:37:40.208Z,68.39
2016-10-02T03:38:40.217Z,68.29
2016-10-02T03:39:40.245Z,68.39
2016-10-02T03:40:40.258Z,68.58
2016-10-02T03:41:40.283Z,68.58
2016-10-02T03:42:40.300Z,68.68
2016-10-02T03:43:40.340Z,68.87
2016-10-02T03:44:40.347Z,68.77
2016-10-02T03:45:40.373Z,68.39
2016-10-02T03:46:40.385Z,68.01
2016-10-02T03:47:40.407Z,68.58
2016-10-02T03:48:40.421Z,68.93
2016-10-02T03:49:40.449Z,68.35
2016-10-02T03:50:40.463Z,68.74
2016-10-02T03:51:40.478Z,68.29
2016-10-02T03:52:40.508Z,68.55
2016-10-02T03:53:40.523Z,67.97
2016-10-02T03:54:40.545Z,68.45
2016-10-02T03:55:40.563Z,68.55
2016-10-02T03:56:40.589Z,68.45
2016-10-02T03:57:40.605Z,68.35
2016-10-02T03:58:40.626Z,68.35
2016-10-02T03:59:40.644Z,68.35
2016-10-02T04:00:40.671Z,68.35
2016-10-02T04:01:40.684Z,68.64
2016-10-02T04:02:40.700Z,68.64
2016-10-02T04:03:40.730Z,68.16
2016-10-02T04:04:40.741Z,68.16
2016-10-02T04:05:40.772Z,68.35
2016-10-02T04:06:40.788Z,68.26
2016-10-02T04:07:40.803Z,68.16
2016-10-02T04:08:40.828Z,68.35
2016-10-02T04:09:40.844Z,68.64
2016-10-02T04:10:40.868Z,68.26
2016-10-02T04:11:40.902Z,68.16
2016-10-02T04:12:40.909Z,68.16
2016-10-02T04:13:40.929Z,68.55
2016-10-02T04:14:40.951Z,68.35
2016-10-02T04:15:40.965Z,68.55
2016-10-02T04:16:40.991Z,68.35
2016-10-02T04:17:41.021Z,68.26
2016-10-02T04:18:41.027Z,68.35
2016-10-02T04:19:41.041Z,68.45
2016-10-02T04:20:41.067Z,68.45
2016-10-02T04:21:41.088Z,69.02
2016-10-02T04:22:41.103Z,68.45
2016-10-02T04:23:41.130Z,68.55
2016-10-02T04:24:41.154Z,68.64
2016-10-02T04:25:41.168Z,68.35
2016-10-02T04:26:41.192Z,68.84
2016-10-02T04:27:41.208Z,68.55
2016-10-02T04:28:41.223Z,68.64
2016-10-02T04:29:41.247Z,68.84
2016-10-02T04:30:41.265Z,68.35
2016-10-02T04:31:41.285Z,68.35
2016-10-02T04:32:41.304Z,68.45
2016-10-02T04:33:41.329Z,68.55
2016-10-02T04:34:41.360Z,68.64
2016-10-02T04:35:41.369Z,68.55
2016-10-02T04:36:41.392Z,68.64
2016-10-02T04:37:41.413Z,68.64
2016-10-02T04:38:41.429Z,68.26
2016-10-02T04:39:41.450Z,69.02
2016-10-02T04:40:41.469Z,68.26
2016-10-02T04:41:41.485Z,68.84
2016-10-02T04:42:41.582Z,68.74
2016-10-02T04:43:41.528Z,68.55
2016-10-02T04:44:41.553Z,68.93
2016-10-02T04:45:41.566Z,68.35
2016-10-02T04:46:41.581Z,68.55
2016-10-02T04:47:41.612Z,67.97
2016-10-02T04:48:41.627Z,68.45
2016-10-02T04:49:41.642Z,68.45
2016-10-02T04:50:41.664Z,68.16
2016-10-02T04:51:41.683Z,67.97
2016-10-02T04:52:41.710Z,68.07
2016-10-02T04:53:41.729Z,68.55
2016-10-02T04:54:41.750Z,68.35
2016-10-02T04:55:41.774Z,68.74
2016-10-02T04:56:41.783Z,68.55
2016-10-02T04:57:41.810Z,68.26
2016-10-02T04:58:41.831Z,68.32
2016-10-02T04:59:41.849Z,68.99
2016-10-02T05:00:41.872Z,68.13
2016-10-02T05:01:41.881Z,68.41
2016-10-02T05:02:41.902Z,68.35
2016-10-02T05:03:41.922Z,68.99
2016-10-02T05:04:41.954Z,68.13
2016-10-02T05:05:41.965Z,68.23
2016-10-02T05:06:41.991Z,68.9
2016-10-02T05:07:42.010Z,68.32
2016-10-02T05:08:42.020Z,68.32
2016-10-02T05:09:42.041Z,68.41
2016-10-02T05:10:42.064Z,68.32
2016-10-02T05:11:42.084Z,68.41
2016-10-02T05:12:42.111Z,68.41
2016-10-02T05:13:42.442Z,68.8
2016-10-02T05:14:42.147Z,68.99
2016-10-02T05:15:42.160Z,68.32
2016-10-02T05:16:42.187Z,68.41
2016-10-02T05:17:42.209Z,68.61
2016-10-02T05:18:42.219Z,68.8
2016-10-02T05:19:42.246Z,68.41
2016-10-02T05:20:42.267Z,68.51
2016-10-02T05:21:42.284Z,68.51
2016-10-02T05:22:42.299Z,68.8
2016-10-02T05:23:42.322Z,68.61
2016-10-02T05:24:42.346Z,68.99
2016-10-02T05:25:42.358Z,68.61
2016-10-02T05:26:42.375Z,68.51
2016-10-02T05:27:42.399Z,68.61
2016-10-02T05:28:42.417Z,68.8
2016-10-02T05:29:42.443Z,68.8
2016-10-02T05:30:42.455Z,68.23
2016-10-02T05:31:42.480Z,68.7
2016-10-02T05:32:42.498Z,68.9
2016-10-02T05:33:42.525Z,68.8
2016-10-02T05:34:42.540Z,68.7
2016-10-02T05:35:42.550Z,68.61
2016-10-02T05:36:42.576Z,68.61
2016-10-02T05:37:42.591Z,68.7
2016-10-02T05:38:42.613Z,68.7
2016-10-02T05:39:42.654Z,68.23
2016-10-02T05:40:42.654Z,68.23
2016-10-02T05:41:42.672Z,69.18
2016-10-02T05:42:42.692Z,69.18
2016-10-02T05:43:42.709Z,68.8
2016-10-02T05:44:42.731Z,68.8
2016-10-02T05:45:42.757Z,68.8
2016-10-02T05:46:42.768Z,68.99
2016-10-02T05:47:42.791Z,69.27
2016-10-02T05:48:42.816Z,68.99
2016-10-02T05:49:42.826Z,68.8
2016-10-02T05:50:42.852Z,68.8
2016-10-02T05:51:42.872Z,68.99
2016-10-02T05:52:42.886Z,68.8
2016-10-02T05:53:42.911Z,68.61
2016-10-02T05:54:42.932Z,68.8
2016-10-02T05:55:42.947Z,68.51
2016-10-02T05:56:42.962Z,69.18
2016-10-02T05:57:42.983Z,69.18
2016-10-02T05:58:43.008Z,68.99
2016-10-02T05:59:43.021Z,68.7
2016-10-02T06:00:43.049Z,68.8
2016-10-02T06:01:43.068Z,69.66
2016-10-02T06:02:43.086Z,69.18
2016-10-02T06:03:43.108Z,69.47
2016-10-02T06:04:43.122Z,69.56
2016-10-02T06:05:43.139Z,69.47
2016-10-02T06:06:43.163Z,69.18
2016-10-02T06:07:43.192Z,70.04
2016-10-02T06:08:43.205Z,70.14
2016-10-02T06:09:43.219Z,70.14
2016-10-02T06:10:43.242Z,70.14
2016-10-02T06:11:43.257Z,69.18
2016-10-02T06:12:43.277Z,70.14
2016-10-02T06:13:43.299Z,70.14
2016-10-02T06:14:43.314Z,69.66
2016-10-02T06:15:43.342Z,69.27
2016-10-02T06:16:43.360Z,70.14
2016-10-02T06:17:43.390Z,69.85
2016-10-02T06:18:43.395Z,69.7
2016-10-02T06:19:43.417Z,69.76
2016-10-02T06:20:43.431Z,69.7
2016-10-02T06:21:43.458Z,69.79
2016-10-02T06:22:43.477Z,69.89
2016-10-02T06:23:43.494Z,69.98
2016-10-02T06:24:43.519Z,69.98
2016-10-02T06:25:43.539Z,69.79
2016-10-02T06:26:43.555Z,69.31
2016-10-02T06:27:43.570Z,69.31
2016-10-02T06:28:43.589Z,69.98
2016-10-02T06:29:43.610Z,69.31
2016-10-02T06:30:43.628Z,69.98
2016-10-02T06:31:43.649Z,69.98
2016-10-02T06:32:43.670Z,69.79
2016-10-02T06:33:43.692Z,70.36
2016-10-02T06:34:43.721Z,70.27
2016-10-02T06:35:43.732Z,69.7
2016-10-02T06:36:43.751Z,69.92
2016-10-02T06:37:43.769Z,70.97
2016-10-02T06:38:43.788Z,69.92
2016-10-02T06:39:43.809Z,70.4
2016-10-02T06:40:43.830Z,70.68
2016-10-02T06:41:43.847Z,70.21
2016-10-02T06:42:43.864Z,70.3
2016-10-02T06:43:43.899Z,70.21
2016-10-02T06:44:43.912Z,70.21
2016-10-02T06:45:43.925Z,70.4
2016-10-02T06:46:43.945Z,70.21
2016-10-02T06:47:43.973Z,70.4
2016-10-02T06:48:43.987Z,70.59
2016-10-02T06:49:44.010Z,70.4
2016-10-02T06:50:44.026Z,70.4
2016-10-02T06:51:44.045Z,70.78
2016-10-02T06:52:44.064Z,70.78
2016-10-02T06:53:44.082Z,69.95
2016-10-02T06:54:44.108Z,69.95
2016-10-02T06:55:44.126Z,69.86
2016-10-02T06:56:44.151Z,69.86
2016-10-02T06:57:44.161Z,69.95
2016-10-02T06:58:44.189Z,70.62
2016-10-02T06:59:44.202Z,69.76
2016-10-02T07:00:44.226Z,69.48
2016-10-02T07:01:44.239Z,69.48
2016-10-02T07:02:44.269Z,70.05
2016-10-02T07:03:44.285Z,70.05
2016-10-02T07:04:44.305Z,69.67
2016-10-02T07:05:44.324Z,70.05
2016-10-02T07:06:44.356Z,70.15
2016-10-02T07:07:44.363Z,69.29
2016-10-02T07:08:44.381Z,69.38
2016-10-02T07:09:44.402Z,69.67
2016-10-02T07:10:44.426Z,69.29
2016-10-02T07:11:44.442Z,69.67
2016-10-02T07:12:44.462Z,69.57
2016-10-02T07:13:44.482Z,69.67
2016-10-02T07:14:44.511Z,68.8
2016-10-02T07:15:44.527Z,69.67
2016-10-02T07:16:44.548Z,69.13
2016-10-02T07:17:44.567Z,69.8
2016-10-02T07:18:44.592Z,69.32
2016-10-02T07:19:44.609Z,69.32
2016-10-02T07:20:44.621Z,68.94
2016-10-02T07:21:44.648Z,69.51
2016-10-02T07:22:44.667Z,69.13
2016-10-02T07:23:44.685Z,69.03
2016-10-02T07:24:44.705Z,69.03
2016-10-02T07:25:44.732Z,68.84
2016-10-02T07:26:44.754Z,68.74
2016-10-02T07:27:44.771Z,69.03
2016-10-02T07:28:44.785Z,68.36
2016-10-02T07:29:44.803Z,68.55
2016-10-02T07:30:44.828Z,68.46
2016-10-02T07:31:44.852Z,68.55
2016-10-02T07:32:44.873Z,68.17
2016-10-02T07:33:44.891Z,68.07
2016-10-02T07:34:44.910Z,68.36
2016-10-02T07:35:44.933Z,67.91
2016-10-02T07:36:44.951Z,68.65
2016-10-02T07:37:45.286Z,68.78
2016-10-02T07:38:44.992Z,68.07
2016-10-02T07:39:45.020Z,68.11
2016-10-02T07:40:45.037Z,68.01
2016-10-02T07:41:45.055Z,67.34
2016-10-02T07:42:45.068Z,68.3
2016-10-02T07:43:45.097Z,67.25
2016-10-02T07:44:45.121Z,67.34
2016-10-02T07:45:45.136Z,67.91
2016-10-02T07:46:45.156Z,67.54
2016-10-02T07:47:45.175Z,67.54
2016-10-02T07:48:45.197Z,67.63
2016-10-02T07:49:45.215Z,67.44
2016-10-02T07:50:45.238Z,67.54
2016-10-02T07:51:45.251Z,67.05
2016-10-02T07:52:45.271Z,67.15
2016-10-02T07:53:45.317Z,66.99
2016-10-02T07:54:45.438Z,66.99
2016-10-02T07:55:45.437Z,66.99
2016-10-02T07:56:45.352Z,67.18
2016-10-02T07:57:45.384Z,66.71
2016-10-02T07:58:45.400Z,66.89
2016-10-02T07:59:45.428Z,66.61
2016-10-02T08:00:45.476Z,66.61
2016-10-02T08:01:45.461Z,67.28
2016-10-02T08:02:45.487Z,66.61
2016-10-02T08:03:45.835Z,66.8
2016-10-02T08:04:45.528Z,66.51
2016-10-02T08:05:45.541Z,66.71
2016-10-02T08:06:45.884Z,66.42
2016-10-02T08:07:45.591Z,66.71
2016-10-02T08:08:45.609Z,66.8
2016-10-02T08:09:45.628Z,66.71
2016-10-02T08:10:45.650Z,66.13
2016-10-02T08:11:45.680Z,66.22
2016-10-02T08:12:45.715Z,66.13
2016-10-02T08:13:45.770Z,65.94
2016-10-02T08:14:45.728Z,65.94
2016-10-02T08:15:46.074Z,65.94
2016-10-02T08:16:45.764Z,66.22
2016-10-02T08:17:45.790Z,66.45
2016-10-02T08:18:45.815Z,66.26
2016-10-02T08:19:45.837Z,65.97
2016-10-02T08:20:45.850Z,65.78
2016-10-02T08:21:45.881Z,65.97
2016-10-02T08:22:45.893Z,65.39
2016-10-02T08:23:45.917Z,66.06
2016-10-02T08:24:45.946Z,65.39
2016-10-02T08:25:45.959Z,65.68
2016-10-02T08:26:45.976Z,65.39
2016-10-02T08:27:46.002Z,65.88
2016-10-02T08:28:46.026Z,65.49
2016-10-02T08:29:46.043Z,65.3
2016-10-02T08:30:46.173Z,65.11
2016-10-02T08:31:46.088Z,65.2
2016-10-02T08:32:46.191Z,64.92
2016-10-02T08:33:46.216Z,65.11
2016-10-02T08:34:46.161Z,65.11
2016-10-02T08:35:46.167Z,64.43
2016-10-02T08:36:46.194Z,64.72
2016-10-02T08:37:46.211Z,64.92
2016-10-02T08:38:46.232Z,64.92
2016-10-02T08:39:46.259Z,64.56
2016-10-02T08:40:46.282Z,64.47
2016-10-02T08:41:46.294Z,64.66
2016-10-02T08:42:46.327Z,64.47
2016-10-02T08:43:46.343Z,64.76
2016-10-02T08:44:46.355Z,64.47
2016-10-02T08:45:46.385Z,64.37
2016-10-02T08:46:46.409Z,64.09
2016-10-02T08:47:46.423Z,63.99
2016-10-02T08:48:46.448Z,63.99
2016-10-02T08:49:46.463Z,63.99
2016-10-02T08:50:46.487Z,64.09
2016-10-02T08:51:46.544Z,64.09
2016-10-02T08:52:46.531Z,64.02
2016-10-02T08:53:46.664Z,64.02
2016-10-02T08:54:46.573Z,63.6
2016-10-02T08:55:46.600Z,64.09
2016-10-02T08:56:46.617Z,63.51
2016-10-02T08:57:46.646Z,63.32
2016-10-02T08:58:46.653Z,63.16
2016-10-02T08:59:46.677Z,62.96
2016-10-02T09:00:46.700Z,63.03
2016-10-02T09:01:46.726Z,62.77
2016-10-02T09:02:46.745Z,63.06
2016-10-02T09:03:46.768Z,63.35
2016-10-02T09:04:46.793Z,62.77
2016-10-02T09:05:46.810Z,62.39
2016-10-02T09:06:46.833Z,62.1
2016-10-02T09:07:46.858Z,62.39
2016-10-02T09:08:46.869Z,62.48
2016-10-02T09:09:46.895Z,63.16
2016-10-02T09:10:46.918Z,62.39
2016-10-02T09:11:46.940Z,62.39
2016-10-02T09:12:46.956Z,62.39
2016-10-02T09:13:46.984Z,61.91
2016-10-02T09:14:47.000Z,61.91
2016-10-02T09:15:47.024Z,61.84
2016-10-02T09:16:47.041Z,61.94
2016-10-02T09:17:47.074Z,61.75
2016-10-02T09:18:47.085Z,61.27
2016-10-02T09:19:47.120Z,61.55
2016-10-02T09:20:47.133Z,61.17
2016-10-02T09:21:47.148Z,61.65
2016-10-02T09:22:47.172Z,61.55
2016-10-02T09:23:47.201Z,61.65
2016-10-02T09:24:47.220Z,61.46
2016-10-02T09:25:47.239Z,61.75
2016-10-02T09:26:47.257Z,61.36
2016-10-02T09:27:47.289Z,61.75
2016-10-02T09:28:47.308Z,61.55
2016-10-02T09:29:47.330Z,61.49
2016-10-02T09:30:47.349Z,60.69
2016-10-02T09:31:47.372Z,61.2
2016-10-02T09:32:47.392Z,61.01
2016-10-02T09:33:47.411Z,60.82
2016-10-02T09:34:47.437Z,60.43
2016-10-02T09:35:47.455Z,60.43
2016-10-02T09:36:47.473Z,60.34
2016-10-02T09:37:47.506Z,60.72
2016-10-02T09:38:47.524Z,60.43
2016-10-02T09:39:47.552Z,60.43
2016-10-02T09:40:47.565Z,60.53
2016-10-02T09:41:47.587Z,60.82
2016-10-02T09:42:47.613Z,60.27
2016-10-02T09:43:47.632Z,60.08
2016-10-02T09:44:47.656Z,59.89
2016-10-02T09:45:47.685Z,59.5
2016-10-02T09:46:47.695Z,59.31
2016-10-02T09:47:47.720Z,59.02
2016-10-02T09:48:47.746Z,58.92
2016-10-02T09:49:47.767Z,59.12
2016-10-02T09:50:47.790Z,59.12
2016-10-02T09:51:47.816Z,59.12
2016-10-02T09:52:47.835Z,58.45
2016-10-02T09:53:47.853Z,58.95
2016-10-02T09:54:47.876Z,58.37
2016-10-02T09:55:47.896Z,58.09
2016-10-02T09:56:47.930Z,57.8
2016-10-02T09:57:47.937Z,57.8
2016-10-02T09:58:47.967Z,57.8
2016-10-02T09:59:47.990Z,57.22
2016-10-02T10:00:48.005Z,57.25
2016-10-02T10:01:48.040Z,57.25
2016-10-02T10:02:48.056Z,57.73
2016-10-02T10:03:48.072Z,57.15
2016-10-02T10:04:48.095Z,56.87
2016-10-02T10:05:48.130Z,56.67
2016-10-02T10:06:48.142Z,56.58
2016-10-02T10:07:48.169Z,56.58
2016-10-02T10:08:48.194Z,56.29
2016-10-02T10:09:48.208Z,55.9
2016-10-02T10:10:48.237Z,55.33
2016-10-02T10:11:48.255Z,55.45
2016-10-02T10:12:48.273Z,55.93
2016-10-02T10:13:48.303Z,55.35
2016-10-02T10:14:48.330Z,55.26
2016-10-02T10:15:48.350Z,55.16
2016-10-02T10:16:48.377Z,55.26
2016-10-02T10:17:48.388Z,54.87
2016-10-02T10:18:48.410Z,55.16
2016-10-02T10:19:48.441Z,55
2016-10-02T10:20:48.463Z,53.84
2016-10-02T10:21:48.487Z,54.03
2016-10-02T10:22:48.512Z,53.55
2016-10-02T10:23:48.527Z,53.27
2016-10-02T10:24:48.552Z,52.78
2016-10-02T10:25:48.890Z,52.71
2016-10-02T10:26:48.609Z,52.69
2016-10-02T10:27:48.627Z,52.23
2016-10-02T10:28:48.646Z,52.23
2016-10-02T10:29:48.667Z,51.36
2016-10-02T10:30:48.697Z,51.07
2016-10-02T10:31:48.715Z,50.88
2016-10-02T10:32:48.732Z,50.88
2016-10-02T10:33:48.766Z,50.98
2016-10-02T10:34:48.783Z,50.9
2016-10-02T10:35:48.802Z,50.81
2016-10-02T10:36:48.832Z,50.04
2016-10-02T10:37:48.858Z,50.52
2016-10-02T10:38:48.880Z,49.75
2016-10-02T10:39:48.896Z,49.55
2016-10-02T10:40:48.925Z,49.39
2016-10-02T10:41:48.949Z,49.58
2016-10-02T10:42:48.972Z,49.48
2016-10-02T10:43:48.999Z,49.29
2016-10-02T10:44:49.017Z,48.81
2016-10-02T10:45:49.055Z,48.71
2016-10-02T10:46:49.069Z,48.33
2016-10-02T10:47:49.092Z,48.03
2016-10-02T10:48:49.116Z,47.94
2016-10-02T10:49:49.134Z,47.65
2016-10-02T10:50:49.164Z,47.36
2016-10-02T10:51:49.185Z,47.36
2016-10-02T10:52:49.206Z,46.9
2016-10-02T10:53:49.234Z,46.78
2016-10-02T10:54:49.254Z,46.49
2016-10-02T10:55:49.292Z,46.4
2016-10-02T10:56:49.310Z,46.2
2016-10-02T10:57:49.335Z,46.11
2016-10-02T10:58:49.354Z,46.11
2016-10-02T10:59:49.383Z,46.4
2016-10-02T11:00:49.402Z,46.11
2016-10-02T11:01:49.430Z,46.01
2016-10-02T11:02:49.446Z,45.92
2016-10-02T11:03:49.481Z,45.82
2016-10-02T11:04:49.500Z,45.82
2016-10-02T11:05:49.522Z,45.62
2016-10-02T11:06:49.548Z,45.72
2016-10-02T11:07:49.572Z,45.62
2016-10-02T11:08:49.597Z,45.72
2016-10-02T11:09:49.628Z,45.82
2016-10-02T11:10:49.650Z,46.01
2016-10-02T11:11:49.671Z,45.92
2016-10-02T11:12:49.689Z,46.01
2016-10-02T11:13:49.723Z,45.82
2016-10-02T11:14:49.743Z,45.53
2016-10-02T11:15:49.773Z,45.62
2016-10-02T11:16:49.795Z,45.34
2016-10-02T11:17:49.814Z,45.34
2016-10-02T11:18:49.834Z,45.14
2016-10-02T11:19:49.863Z,44.95
2016-10-02T11:20:49.887Z,44.66
2016-10-02T11:21:49.920Z,44.56
2016-10-02T11:22:49.936Z,44.37
2016-10-02T11:23:49.963Z,44.56
2016-10-02T11:24:49.988Z,44.18
2016-10-02T11:25:50.020Z,43.7
2016-10-02T11:26:50.037Z,43.79
2016-10-02T11:27:50.058Z,44.18
2016-10-02T11:28:50.084Z,44.46
2016-10-02T11:29:50.110Z,44.39
2016-10-02T11:30:50.137Z,44.18
2016-10-02T11:31:50.160Z,44.27
2016-10-02T11:32:50.178Z,43.98
2016-10-02T11:33:50.205Z,43.72
2016-10-02T11:34:50.235Z,43.7
2016-10-02T11:35:50.568Z,43.72
2016-10-02T11:36:50.284Z,43.43
2016-10-02T11:37:50.309Z,43.33
2016-10-02T11:38:50.329Z,43.33
2016-10-02T11:39:50.357Z,43.14
2016-10-02T11:40:50.380Z,42.94
2016-10-02T11:41:50.401Z,42.85
2016-10-02T11:42:50.431Z,43.14
2016-10-02T11:43:50.467Z,42.66
2016-10-02T11:44:50.482Z,42.66
2016-10-02T11:45:50.502Z,42.36
2016-10-02T11:46:50.529Z,42.27
2016-10-02T11:47:50.548Z,42.27
2016-10-02T11:48:50.572Z,42.27
2016-10-02T11:49:50.605Z,42.18
2016-10-02T11:50:50.628Z,42.36
2016-10-02T11:51:50.654Z,42.46
2016-10-02T11:52:50.678Z,42.27
2016-10-02T11:53:50.706Z,41.69
2016-10-02T11:54:50.729Z,41.4
2016-10-02T11:55:50.758Z,41.3
2016-10-02T11:56:50.784Z,41.02
2016-10-02T11:57:50.896Z,41.02
2016-10-02T11:58:50.908Z,41.4
2016-10-02T11:59:50.905Z,41.3
2016-10-02T12:00:50.914Z,41.38
2016-10-02T12:01:50.929Z,41.4
2016-10-02T12:02:50.935Z,41.38
2016-10-02T12:03:50.946Z,41.28
2016-10-02T12:04:51.075Z,41.02
2016-10-02T12:05:51.081Z,40.61
2016-10-02T12:06:51.119Z,40.61
2016-10-02T12:07:51.128Z,40.8
2016-10-02T12:08:51.134Z,40.12
2016-10-02T12:09:51.135Z,40.32
2016-10-02T12:10:51.183Z,39.54
2016-10-02T12:11:51.192Z,39.84
2016-10-02T12:12:51.200Z,39.74
2016-10-02T12:13:51.196Z,39.54
2016-10-02T12:14:51.219Z,39.64
2016-10-02T12:15:51.242Z,39.64
2016-10-02T12:16:51.265Z,39.64
2016-10-02T12:17:51.290Z,39.53
2016-10-02T12:18:51.317Z,39.04
2016-10-02T12:19:51.339Z,39.43
2016-10-02T12:20:51.368Z,39.24
2016-10-02T12:21:51.390Z,38.85
2016-10-02T12:22:51.412Z,38.85
2016-10-02T12:23:51.442Z,38.85
2016-10-02T12:24:51.476Z,38.85
2016-10-02T12:25:51.504Z,38.85
2016-10-02T12:26:51.517Z,38.85
2016-10-02T12:27:51.545Z,38.85
2016-10-02T12:28:51.570Z,39.24
2016-10-02T12:29:51.590Z,39.14
2016-10-02T12:30:51.608Z,39.53
2016-10-02T12:31:51.657Z,39.72
2016-10-02T12:32:51.669Z,39.72
2016-10-02T12:33:52.006Z,39.72
2016-10-02T12:34:51.717Z,39.91
2016-10-02T12:35:51.739Z,40.01
2016-10-02T12:36:51.761Z,40.01
2016-10-02T12:37:51.793Z,39.82
2016-10-02T12:38:51.805Z,40.11
2016-10-02T12:39:51.836Z,40.11
2016-10-02T12:40:51.865Z,40.01
2016-10-02T12:41:51.893Z,40.01
2016-10-02T12:42:51.915Z,40.12
2016-10-02T12:43:51.939Z,40.32
2016-10-02T12:44:51.958Z,40.32
2016-10-02T12:45:51.988Z,40.61
2016-10-02T12:46:52.012Z,40.8
2016-10-02T12:47:52.030Z,40.51
2016-10-02T12:48:52.056Z,40.61
2016-10-02T12:49:52.087Z,40.61
2016-10-02T12:50:52.113Z,40.9
2016-10-02T12:51:52.138Z,41.11
2016-10-02T12:52:52.154Z,40.99
2016-10-02T12:53:52.189Z,41.11
2016-10-02T12:54:52.211Z,40.82
2016-10-02T12:55:52.234Z,41.11